This is the latest recevied weather packets stored in our database for station/object EA5JZL-10. If no packets are shown the sender has not sent any weather packets the latest 10 day(s).
| Time | Temp. | Humidity | Pressure | Rain* | Wind** | Luminosity | Snow |
|---|---|---|---|---|---|---|---|
| 1777150248 | 23.89° C | 40% | 1019 hPa | - | - | - | - |
| 1777148448 | 22.78° C | 42% | 1018.6 hPa | - | - | - | - |
| 1777146648 | 22.78° C | 41% | 1018.2 hPa | - | - | - | - |
| 1777144848 | 22.78° C | 42% | 1017.6 hPa | - | - | - | - |
| 1777143048 | 21.67° C | 45% | 1017.3 hPa | - | - | - | - |
| 1777141248 | 22.22° C | 45% | 1017 hPa | - | - | - | - |
| 1777139447 | 22.22° C | 44% | 1016.9 hPa | - | - | - | - |
| 1777137647 | 22.78° C | 43% | 1016.9 hPa | - | - | - | - |
| 1777135847 | 22.78° C | 44% | 1016.9 hPa | - | - | - | - |
| 1777134047 | 23.33° C | 43% | 1016.8 hPa | - | - | - | - |
| 1777132247 | 23.89° C | 43% | 1016.6 hPa | - | - | - | - |
| 1777130447 | 23.33° C | 44% | 1016.8 hPa | - | - | - | - |
| 1777128646 | 23.33° C | 44% | 1017 hPa | - | - | - | - |
| 1777126846 | 23.89° C | 39% | 1017.1 hPa | - | - | - | - |
| 1777125046 | 22.78° C | 42% | 1017.4 hPa | - | - | - | - |
| 1777123246 | 22.78° C | 45% | 1017.5 hPa | - | - | - | - |
| 1777121446 | 23.89° C | 48% | 1017.6 hPa | - | - | - | - |
| 1777119646 | 22.22° C | 51% | 1017.8 hPa | - | - | - | - |
| 1777117845 | 22.22° C | 52% | 1018.1 hPa | - | - | - | - |
| 1777116044 | 22.22° C | 51% | 1018.5 hPa | - | - | - | - |
| 1777114244 | 22.22° C | 49% | 1018.8 hPa | - | - | - | - |
| 1777112444 | 21.67° C | 50% | 1019 hPa | - | - | - | - |
* Rain since midnight (hover to see other rain measurements)
** Current wind speed in m/s (hover to see current wind gust speed)